createdAt,value
2018-09-22T00:00:01.249Z,100550.84
2018-09-22T00:02:29.461Z,100548.77
2018-09-22T00:04:57.613Z,100560.83
2018-09-22T00:07:25.757Z,100556.11
2018-09-22T00:09:53.893Z,100559.87
2018-09-22T00:12:22.144Z,100564.33
2018-09-22T00:14:50.309Z,100568.00
2018-09-22T00:17:18.413Z,100570.40
2018-09-22T00:19:46.569Z,100568.33
2018-09-22T00:22:14.725Z,100563.24
2018-09-22T00:24:42.879Z,100573.83
2018-09-22T00:27:11.024Z,100577.58
2018-09-22T00:29:39.170Z,100573.73
2018-09-22T00:32:07.293Z,100578.88
2018-09-22T00:34:35.725Z,100574.59
2018-09-22T00:37:03.846Z,100580.48
2018-09-22T00:39:31.981Z,100576.19
2018-09-22T00:42:00.132Z,100576.16
2018-09-22T00:44:28.261Z,100592.63
2018-09-22T00:46:56.437Z,100587.05
2018-09-22T00:49:24.609Z,100585.17
2018-09-22T00:51:52.756Z,100587.27
2018-09-22T00:54:20.892Z,100588.33
2018-09-22T00:56:49.040Z,100588.70
2018-09-22T00:59:17.197Z,100592.84
2018-09-22T01:01:45.340Z,100586.27
2018-09-22T01:04:13.492Z,100587.45
2018-09-22T01:06:41.627Z,100597.91
2018-09-22T01:09:09.774Z,100605.38
2018-09-22T01:11:38.459Z,100610.36
2018-09-22T01:14:07.152Z,100619.55
2018-09-22T01:16:35.334Z,100631.78
2018-09-22T01:19:03.453Z,100635.72
2018-09-22T01:21:31.612Z,100634.88
2018-09-22T01:23:59.726Z,100634.45
2018-09-22T01:26:27.873Z,100631.30
2018-09-22T01:28:56.032Z,100640.78
2018-09-22T01:31:24.182Z,100643.83
2018-09-22T01:33:52.336Z,100653.35
2018-09-22T01:36:20.458Z,100653.60
2018-09-22T01:38:48.633Z,100652.21
2018-09-22T01:41:16.770Z,100652.42
2018-09-22T01:43:44.900Z,100649.09
2018-09-22T01:46:13.078Z,100640.95
2018-09-22T01:48:41.204Z,100647.20
2018-09-22T01:51:09.342Z,100653.28
2018-09-22T01:53:37.484Z,100663.87
2018-09-22T01:56:05.641Z,100669.22
2018-09-22T01:58:33.737Z,100672.77
2018-09-22T02:01:01.884Z,100663.45
2018-09-22T02:03:30.010Z,100657.00
2018-09-22T02:05:58.144Z,100665.34
2018-09-22T02:08:26.291Z,100661.80
2018-09-22T02:10:54.429Z,100661.75
2018-09-22T02:13:22.582Z,100669.26
2018-09-22T02:15:50.730Z,100682.80
2018-09-22T02:18:18.853Z,100682.25
2018-09-22T02:20:46.982Z,100695.97
2018-09-22T02:23:15.125Z,100689.72
2018-09-22T02:25:43.316Z,100694.19
2018-09-22T02:28:11.460Z,100699.12
2018-09-22T02:30:39.603Z,100706.50
2018-09-22T02:33:07.770Z,100711.02
2018-09-22T02:35:35.872Z,100712.33
2018-09-22T02:38:04.051Z,100727.97
2018-09-22T02:40:32.262Z,100723.44
2018-09-22T02:43:00.438Z,100728.95
2018-09-22T02:45:28.576Z,100736.21
2018-09-22T02:47:56.734Z,100735.56
2018-09-22T02:50:24.861Z,100730.30
2018-09-22T02:52:53.007Z,100729.44
2018-09-22T02:55:21.122Z,100729.98
2018-09-22T02:57:49.237Z,100734.72
2018-09-22T03:00:17.487Z,100741.26
2018-09-22T03:02:45.611Z,100751.95
2018-09-22T03:05:13.764Z,100768.14
2018-09-22T03:07:42.064Z,100778.02
2018-09-22T03:10:10.223Z,100778.73
2018-09-22T03:12:38.356Z,100779.36
2018-09-22T03:15:06.942Z,100785.41
2018-09-22T03:17:35.145Z,100787.28
2018-09-22T03:20:03.297Z,100790.56
2018-09-22T03:22:31.422Z,100791.56
2018-09-22T03:24:59.563Z,100795.40
2018-09-22T03:27:27.713Z,100802.58
2018-09-22T03:29:55.945Z,100811.13
2018-09-22T03:32:24.150Z,100803.02
2018-09-22T03:34:52.254Z,100805.05
2018-09-22T03:37:20.393Z,100807.21
2018-09-22T03:39:48.545Z,100813.70
2018-09-22T03:42:16.718Z,100821.02
2018-09-22T03:44:44.841Z,100815.72
2018-09-22T03:47:13.009Z,100814.22
2018-09-22T03:49:41.159Z,100824.48
2018-09-22T03:52:09.342Z,100828.28
2018-09-22T03:54:37.475Z,100832.51
2018-09-22T03:57:05.721Z,100833.59
2018-09-22T03:59:33.910Z,100838.05
2018-09-22T04:02:02.074Z,100838.81
2018-09-22T04:04:30.217Z,100845.42
2018-09-22T04:06:58.372Z,100840.20
2018-09-22T04:09:26.524Z,100841.73
2018-09-22T04:11:54.665Z,100842.89
2018-09-22T04:14:22.801Z,100840.89
2018-09-22T04:16:50.957Z,100846.50
2018-09-22T04:19:19.122Z,100855.03
2018-09-22T04:21:47.286Z,100844.70
2018-09-22T04:24:20.152Z,100845.19
2018-09-22T04:26:49.976Z,100840.81
2018-09-22T04:29:18.746Z,100845.58
2018-09-22T04:31:46.921Z,100856.25
2018-09-22T04:34:15.030Z,100877.39
2018-09-22T04:36:43.792Z,100888.16
2018-09-22T04:39:11.965Z,100888.63
2018-09-22T04:41:41.610Z,100884.94
2018-09-22T04:44:09.887Z,100893.70
2018-09-22T04:46:38.121Z,100903.69
2018-09-22T04:49:06.332Z,100906.13
2018-09-22T04:51:34.500Z,100906.52
2018-09-22T04:54:02.670Z,100903.76
2018-09-22T04:56:31.077Z,100908.33
2018-09-22T04:58:59.233Z,100906.19
2018-09-22T05:01:27.737Z,100901.97
2018-09-22T05:03:56.353Z,100913.73
2018-09-22T05:06:24.506Z,100912.88
2018-09-22T05:08:52.640Z,100922.63
2018-09-22T05:11:20.769Z,100926.94
2018-09-22T05:13:48.891Z,100922.75
2018-09-22T05:16:20.008Z,100930.58
2018-09-22T05:18:48.137Z,100930.12
2018-09-22T05:21:16.259Z,100927.51
2018-09-22T05:23:45.144Z,100933.89
2018-09-22T05:26:13.277Z,100930.44
2018-09-22T05:28:41.448Z,100942.97
2018-09-22T05:31:09.597Z,100941.66
2018-09-22T05:33:37.743Z,100949.63
2018-09-22T05:36:05.867Z,100951.04
2018-09-22T05:38:34.005Z,100956.66
2018-09-22T05:41:02.188Z,100955.91
2018-09-22T05:43:30.356Z,100956.52
2018-09-22T05:45:58.509Z,100961.98
2018-09-22T05:48:26.657Z,100965.58
2018-09-22T05:50:54.815Z,100971.51
2018-09-22T05:53:22.955Z,100971.22
2018-09-22T05:55:51.085Z,100974.41
2018-09-22T05:58:19.220Z,100972.63
2018-09-22T06:00:47.372Z,100971.32
2018-09-22T06:03:15.538Z,100978.24
2018-09-22T06:05:43.677Z,100983.70
2018-09-22T06:08:11.824Z,100990.64
2018-09-22T06:10:40.047Z,100985.10
2018-09-22T06:13:08.198Z,100994.25
2018-09-22T06:15:37.034Z,101001.64
2018-09-22T06:18:05.229Z,101000.23
2018-09-22T06:20:33.376Z,100999.92
2018-09-22T06:23:01.579Z,100997.62
2018-09-22T06:25:29.669Z,101002.02
2018-09-22T06:27:57.864Z,101000.26
2018-09-22T06:30:26.098Z,100998.70
2018-09-22T06:32:54.215Z,101007.16
2018-09-22T06:35:22.357Z,101003.55
2018-09-22T06:37:50.509Z,101003.37
2018-09-22T06:40:18.689Z,101001.07
2018-09-22T06:42:47.064Z,101009.07
2018-09-22T06:45:16.017Z,101009.62
2018-09-22T06:47:46.525Z,101007.20
2018-09-22T06:50:15.051Z,101003.34
2018-09-22T06:52:43.605Z,100996.12
2018-09-22T06:55:12.194Z,101001.61
2018-09-22T06:57:41.333Z,101001.61
2018-09-22T07:00:09.621Z,101001.38
2018-09-22T07:02:38.722Z,100997.94
2018-09-22T07:05:07.282Z,101003.80
2018-09-22T07:07:37.398Z,101000.00
2018-09-22T07:10:05.592Z,101003.71
2018-09-22T07:12:33.824Z,101007.42
2018-09-22T07:15:02.028Z,101013.73
2018-09-22T07:17:30.399Z,101016.73
2018-09-22T07:19:58.585Z,101015.57
2018-09-22T07:22:32.165Z,101014.02
2018-09-22T07:25:00.305Z,101013.82
2018-09-22T07:27:28.460Z,101013.30
2018-09-22T07:29:56.621Z,101017.41
2018-09-22T07:32:24.773Z,101016.69
2018-09-22T07:34:52.949Z,101014.31
2018-09-22T07:37:21.122Z,101014.49
2018-09-22T07:39:49.313Z,101021.21
2018-09-22T07:42:17.459Z,101015.47
2018-09-22T07:44:45.601Z,101014.28
2018-09-22T07:47:13.791Z,101015.27
2018-09-22T07:49:41.999Z,101014.37
2018-09-22T07:52:10.286Z,101024.50
2018-09-22T07:54:38.464Z,101020.18
2018-09-22T07:57:06.633Z,101017.28
2018-09-22T07:59:34.798Z,101021.16
2018-09-22T08:02:03.001Z,101018.08
2018-09-22T08:04:31.145Z,101024.72
2018-09-22T08:06:59.253Z,101021.55
2018-09-22T08:09:27.468Z,101025.48
2018-09-22T08:11:55.670Z,101023.48
2018-09-22T08:14:23.833Z,101033.74
2018-09-22T08:16:52.016Z,101031.11
2018-09-22T08:19:20.117Z,101020.91
2018-09-22T08:21:48.248Z,101029.30
2018-09-22T08:24:16.393Z,101032.46
2018-09-22T08:26:44.549Z,101029.39
2018-09-22T08:29:12.738Z,101034.38
2018-09-22T08:31:40.852Z,101035.65
2018-09-22T08:34:09.039Z,101031.89
2018-09-22T08:36:37.360Z,101037.09
2018-09-22T08:39:08.118Z,101025.55
2018-09-22T08:41:36.249Z,101026.67
2018-09-22T08:44:04.447Z,101033.26
2018-09-22T08:46:32.575Z,101035.53
2018-09-22T08:49:00.847Z,101039.76
2018-09-22T08:51:29.027Z,101037.64
2018-09-22T08:53:57.301Z,101035.57
2018-09-22T08:56:25.460Z,101036.84
2018-09-22T08:58:53.609Z,101048.69
2018-09-22T09:01:21.748Z,101052.53
2018-09-22T09:03:49.921Z,101058.69
2018-09-22T09:06:18.104Z,101057.53
2018-09-22T09:08:46.275Z,101050.78
2018-09-22T09:11:14.551Z,101039.91
2018-09-22T09:13:43.171Z,101057.45
2018-09-22T09:16:11.237Z,101052.38
2018-09-22T09:18:39.369Z,101059.11
2018-09-22T09:21:07.565Z,101060.09
2018-09-22T09:23:35.749Z,101057.47
2018-09-22T09:26:03.904Z,101058.19
2018-09-22T09:28:32.020Z,101049.33
2018-09-22T09:31:00.176Z,101034.73
2018-09-22T09:33:28.300Z,101049.20
2018-09-22T09:35:56.504Z,101037.98
2018-09-22T09:38:24.673Z,101050.11
2018-09-22T09:40:52.848Z,101041.51
2018-09-22T09:43:21.050Z,101047.46
2018-09-22T09:45:49.188Z,101037.00
2018-09-22T09:48:17.404Z,101035.66
2018-09-22T09:50:45.564Z,101035.28
2018-09-22T09:53:13.927Z,101033.11
2018-09-22T09:55:42.709Z,101035.77
2018-09-22T09:58:10.871Z,101031.20
2018-09-22T10:00:46.855Z,101020.16
2018-09-22T10:03:16.759Z,101022.08
2018-09-22T10:05:45.425Z,101022.55
2018-09-22T10:08:13.740Z,101023.69
2018-09-22T10:10:41.873Z,101022.80
2018-09-22T10:13:09.992Z,101024.38
2018-09-22T10:15:38.176Z,101031.91
2018-09-22T10:18:06.444Z,101022.14
2018-09-22T10:20:34.776Z,101024.55
2018-09-22T10:23:03.172Z,101014.03
2018-09-22T10:25:31.378Z,101019.35
2018-09-22T10:27:59.657Z,101020.84
2018-09-22T10:30:27.960Z,101012.25
2018-09-22T10:32:56.124Z,101013.59
2018-09-22T10:35:24.344Z,101014.34
2018-09-22T10:37:52.593Z,101001.65
2018-09-22T10:40:20.760Z,101016.03
2018-09-22T10:42:48.951Z,101010.98
2018-09-22T10:45:17.168Z,100998.89
2018-09-22T10:47:45.352Z,101012.66
2018-09-22T10:50:13.557Z,101018.30
2018-09-22T10:52:41.848Z,101012.65
2018-09-22T10:55:09.926Z,101010.86
2018-09-22T10:57:38.112Z,101015.52
2018-09-22T11:00:06.317Z,101026.05
2018-09-22T11:02:34.475Z,101011.70
2018-09-22T11:05:02.585Z,101011.59
2018-09-22T11:07:31.241Z,101016.25
2018-09-22T11:09:59.348Z,101022.77
2018-09-22T11:12:27.497Z,101006.84
2018-09-22T11:14:55.696Z,101020.09
2018-09-22T11:17:23.888Z,101005.22
2018-09-22T11:19:52.047Z,101011.89
2018-09-22T11:22:20.250Z,101003.87
2018-09-22T11:24:48.349Z,100998.69
2018-09-22T11:27:16.483Z,100996.13
2018-09-22T11:29:44.629Z,100988.56
2018-09-22T11:32:12.733Z,100992.42
2018-09-22T11:34:40.901Z,101004.72
2018-09-22T11:37:09.050Z,101010.99
2018-09-22T11:39:37.243Z,101014.36
2018-09-22T11:42:05.402Z,101011.16
2018-09-22T11:44:33.548Z,101013.13
2018-09-22T11:47:01.697Z,101015.41
2018-09-22T11:49:29.847Z,101003.42
2018-09-22T11:51:57.972Z,101003.69
2018-09-22T11:54:26.147Z,100994.09
2018-09-22T11:56:54.265Z,100998.06
2018-09-22T11:59:22.401Z,100999.06
2018-09-22T12:01:50.624Z,101001.44
2018-09-22T12:04:18.733Z,101003.23
2018-09-22T12:06:47.047Z,101014.41
2018-09-22T12:09:15.003Z,101030.83
2018-09-22T12:11:43.128Z,101021.61
2018-09-22T12:14:11.381Z,101021.98
2018-09-22T12:16:39.458Z,101019.34
2018-09-22T12:19:07.582Z,101032.53
2018-09-22T12:21:35.713Z,101036.30
2018-09-22T12:24:03.829Z,101037.52
2018-09-22T12:26:31.967Z,101058.41
2018-09-22T12:29:00.193Z,101086.40
2018-09-22T12:31:28.332Z,101136.37
2018-09-22T12:33:56.489Z,101123.95
2018-09-22T12:36:24.632Z,101110.57
2018-09-22T12:38:52.780Z,101110.30
2018-09-22T12:41:20.952Z,101118.46
2018-09-22T12:43:49.090Z,101105.86
2018-09-22T12:46:17.245Z,101102.18
2018-09-22T12:48:45.376Z,101105.28
2018-09-22T12:51:13.505Z,101117.08
2018-09-22T12:53:42.558Z,101113.23
2018-09-22T12:56:10.703Z,101103.61
2018-09-22T12:58:38.853Z,101098.75
2018-09-22T13:01:07.149Z,101104.95
2018-09-22T13:03:35.319Z,101106.26
2018-09-22T13:06:03.389Z,101114.13
2018-09-22T13:08:31.555Z,101107.58
2018-09-22T13:10:59.719Z,101102.34
2018-09-22T13:13:27.997Z,101093.77
2018-09-22T13:15:56.006Z,101108.22
2018-09-22T13:18:24.154Z,101105.20
2018-09-22T13:20:52.377Z,101119.09
2018-09-22T13:23:20.479Z,101110.67
2018-09-22T13:25:48.653Z,101110.42
2018-09-22T13:28:16.756Z,101108.42
2018-09-22T13:30:44.932Z,101114.23
2018-09-22T13:33:13.053Z,101107.50
2018-09-22T13:35:41.204Z,101108.50
2018-09-22T13:38:09.369Z,101114.97
2018-09-22T13:40:37.867Z,101114.09
2018-09-22T13:43:06.018Z,101111.53
2018-09-22T13:45:34.125Z,101102.73
2018-09-22T13:48:02.418Z,101099.48
2018-09-22T13:50:30.582Z,101100.42
2018-09-22T13:52:58.698Z,101084.29
2018-09-22T13:55:26.831Z,101081.06
2018-09-22T13:57:54.959Z,101074.22
2018-09-22T14:00:23.056Z,101083.88
2018-09-22T14:02:51.172Z,101081.08
2018-09-22T14:05:19.324Z,101085.31
2018-09-22T14:07:47.473Z,101077.91
2018-09-22T14:10:15.720Z,101065.76
2018-09-22T14:12:43.728Z,101077.22
2018-09-22T14:15:11.836Z,101074.22
2018-09-22T14:17:39.959Z,101079.64
2018-09-22T14:20:08.052Z,101075.62
2018-09-22T14:22:36.204Z,101073.55
2018-09-22T14:25:04.392Z,101067.40
2018-09-22T14:27:32.531Z,101065.50
2018-09-22T14:30:00.717Z,101064.66
2018-09-22T14:32:28.836Z,101050.72
2018-09-22T14:34:57.002Z,101047.34
2018-09-22T14:37:25.161Z,101049.50
2018-09-22T14:39:53.533Z,101053.52
2018-09-22T14:42:21.740Z,101053.81
2018-09-22T14:44:49.900Z,101052.15
2018-09-22T14:47:18.072Z,101060.48
2018-09-22T14:49:46.255Z,101054.69
2018-09-22T14:52:14.420Z,101055.33
2018-09-22T14:54:42.597Z,101065.53
2018-09-22T14:57:11.021Z,101064.98
2018-09-22T14:59:39.217Z,101065.66
2018-09-22T15:02:07.555Z,101065.45
2018-09-22T15:04:35.731Z,101059.76
2018-09-22T15:07:03.920Z,101053.25
2018-09-22T15:09:32.136Z,101049.14
2018-09-22T15:12:00.284Z,101035.55
2018-09-22T15:14:28.685Z,101048.12
2018-09-22T15:16:57.177Z,101047.28
2018-09-22T15:19:25.325Z,101052.14
2018-09-22T15:21:53.474Z,101059.47
2018-09-22T15:24:21.628Z,101062.44
2018-09-22T15:26:49.745Z,101066.20
2018-09-22T15:29:17.912Z,101066.59
2018-09-22T15:31:46.039Z,101075.86
2018-09-22T15:34:14.188Z,101081.86
2018-09-22T15:36:42.318Z,101088.08
2018-09-22T15:39:10.751Z,101082.16
2018-09-22T15:41:38.876Z,101085.59
2018-09-22T15:44:06.985Z,101075.70
2018-09-22T15:46:35.109Z,101068.73
2018-09-22T15:49:03.241Z,101069.78
2018-09-22T15:51:31.401Z,101061.19
2018-09-22T15:53:59.567Z,101065.07
2018-09-22T15:56:27.695Z,101048.84
2018-09-22T15:58:55.813Z,101048.74
2018-09-22T16:01:23.971Z,101058.98
2018-09-22T16:03:52.112Z,101056.82
2018-09-22T16:06:20.256Z,101053.27
2018-09-22T16:08:48.446Z,101048.41
2018-09-22T16:11:16.886Z,101042.66
2018-09-22T16:13:46.401Z,101044.11
2018-09-22T16:16:14.537Z,101038.08
2018-09-22T16:18:42.645Z,101034.01
2018-09-22T16:21:10.773Z,101042.55
2018-09-22T16:23:39.320Z,101033.37
2018-09-22T16:26:07.541Z,101035.94
2018-09-22T16:28:35.785Z,101027.32
2018-09-22T16:31:04.728Z,101031.30
2018-09-22T16:33:32.849Z,101024.75
2018-09-22T16:36:01.004Z,101021.69
2018-09-22T16:38:29.117Z,101016.28
2018-09-22T16:40:57.213Z,101011.34
2018-09-22T16:43:25.339Z,101012.87
2018-09-22T16:45:53.468Z,101014.17
2018-09-22T16:48:21.597Z,101011.34
2018-09-22T16:50:49.733Z,101017.77
2018-09-22T16:53:17.913Z,101027.41
2018-09-22T16:55:46.044Z,101034.77
2018-09-22T16:58:14.157Z,101034.77
2018-09-22T17:00:42.312Z,101028.89
2018-09-22T17:03:10.460Z,101027.71
2018-09-22T17:05:38.578Z,101021.42
2018-09-22T17:08:06.720Z,101031.34
2018-09-22T17:10:34.856Z,101025.55
2018-09-22T17:13:02.973Z,101033.80
2018-09-22T17:15:31.082Z,101032.11
2018-09-22T17:17:59.197Z,101027.33
2018-09-22T17:20:27.317Z,101024.16
2018-09-22T17:22:55.421Z,101031.27
2018-09-22T17:25:23.757Z,101033.34
2018-09-22T17:27:51.908Z,101030.33
2018-09-22T17:30:20.556Z,101025.94
2018-09-22T17:32:48.786Z,101031.74
2018-09-22T17:35:16.902Z,101027.56
2018-09-22T17:37:45.405Z,101023.31
2018-09-22T17:40:13.525Z,101035.12
2018-09-22T17:42:41.656Z,101020.24
2018-09-22T17:45:09.840Z,101012.07
2018-09-22T17:47:38.026Z,101014.02
2018-09-22T17:50:06.177Z,101013.67
2018-09-22T17:52:34.309Z,101015.53
2018-09-22T17:55:02.437Z,101021.70
2018-09-22T17:57:30.553Z,101017.23
2018-09-22T17:59:58.676Z,101013.37
2018-09-22T18:02:26.828Z,101028.67
2018-09-22T18:04:54.999Z,101028.91
2018-09-22T18:07:23.108Z,101027.99
2018-09-22T18:09:51.265Z,101032.28
2018-09-22T18:12:19.432Z,101024.38
2018-09-22T18:14:47.655Z,101025.12
2018-09-22T18:17:15.826Z,101029.61
2018-09-22T18:19:44.004Z,101028.51
2018-09-22T18:22:12.207Z,101028.26
2018-09-22T18:24:40.389Z,101039.45
2018-09-22T18:27:08.533Z,101036.59
2018-09-22T18:29:36.663Z,101038.53
2018-09-22T18:32:04.923Z,101034.68
2018-09-22T18:34:33.118Z,101032.23
2018-09-22T18:37:01.274Z,101035.91
2018-09-22T18:39:29.440Z,101034.38
2018-09-22T18:41:57.538Z,101031.13
2018-09-22T18:44:25.652Z,101031.34
2018-09-22T18:46:53.788Z,101036.02
2018-09-22T18:49:21.988Z,101035.39
2018-09-22T18:51:50.158Z,101040.72
2018-09-22T18:54:18.265Z,101033.68
2018-09-22T18:56:46.409Z,101038.38
2018-09-22T18:59:14.664Z,101039.30
2018-09-22T19:01:42.868Z,101034.61
2018-09-22T19:04:11.020Z,101033.84
2018-09-22T19:06:39.173Z,101034.71
2018-09-22T19:09:08.568Z,101036.11
2018-09-22T19:11:36.780Z,101040.86
2018-09-22T19:14:09.828Z,101049.87
2018-09-22T19:16:42.062Z,101051.88
2018-09-22T19:19:11.741Z,101050.41
2018-09-22T19:21:56.609Z,101053.87
2018-09-22T19:24:31.230Z,101051.42
2018-09-22T19:27:04.929Z,101053.19
2018-09-22T19:29:37.412Z,101059.04
2018-09-22T19:32:11.024Z,101068.91
2018-09-22T19:34:45.531Z,101063.38
2018-09-22T19:37:20.555Z,101064.14
2018-09-22T19:39:54.386Z,101068.86
2018-09-22T19:42:28.331Z,101072.17
2018-09-22T19:45:01.136Z,101067.77
2018-09-22T19:47:34.735Z,101069.16
2018-09-22T19:50:06.635Z,101066.94
2018-09-22T19:52:39.833Z,101059.64
2018-09-22T19:55:08.028Z,101069.35
2018-09-22T19:57:36.259Z,101057.99
2018-09-22T20:00:04.922Z,101054.69
2018-09-22T20:02:33.073Z,101052.99
2018-09-22T20:05:01.242Z,101059.70
2018-09-22T20:07:29.401Z,101062.55
2018-09-22T20:09:57.569Z,101057.77
2018-09-22T20:12:25.824Z,101067.56
2018-09-22T20:14:53.966Z,101071.02
2018-09-22T20:17:22.146Z,101074.06
2018-09-22T20:19:50.292Z,101069.52
2018-09-22T20:22:18.472Z,101077.52
2018-09-22T20:24:46.678Z,101084.84
2018-09-22T20:27:14.857Z,101080.45
2018-09-22T20:29:43.348Z,101076.47
2018-09-22T20:32:11.600Z,101064.62
2018-09-22T20:34:39.804Z,101065.45
2018-09-22T20:37:07.961Z,101067.64
2018-09-22T20:39:36.109Z,101067.23
2018-09-22T20:42:04.278Z,101066.24
2018-09-22T20:44:32.469Z,101074.31
2018-09-22T20:47:00.586Z,101075.55
2018-09-22T20:49:28.792Z,101071.23
2018-09-22T20:51:56.952Z,101075.41
2018-09-22T20:54:25.134Z,101080.80
2018-09-22T20:56:53.322Z,101079.08
2018-09-22T20:59:21.495Z,101087.09
2018-09-22T21:01:49.681Z,101084.57
2018-09-22T21:04:17.842Z,101090.91
2018-09-22T21:06:46.003Z,101080.32
2018-09-22T21:09:14.109Z,101085.13
2018-09-22T21:11:42.249Z,101078.45
2018-09-22T21:14:10.405Z,101083.78
2018-09-22T21:16:38.754Z,101082.62
2018-09-22T21:19:06.933Z,101087.61
2018-09-22T21:21:35.121Z,101079.83
2018-09-22T21:24:03.264Z,101082.98
2018-09-22T21:26:31.427Z,101076.59
2018-09-22T21:28:59.840Z,101080.36
2018-09-22T21:31:28.166Z,101081.42
2018-09-22T21:33:56.324Z,101083.20
2018-09-22T21:36:25.323Z,101075.28
2018-09-22T21:38:53.500Z,101074.50
2018-09-22T21:41:21.661Z,101075.59
2018-09-22T21:43:50.469Z,101075.59
2018-09-22T21:46:18.668Z,101072.77
2018-09-22T21:48:46.852Z,101076.91
2018-09-22T21:51:15.033Z,101080.05
2018-09-22T21:53:43.968Z,101075.67
2018-09-22T21:56:12.161Z,101076.62
2018-09-22T21:58:40.283Z,101075.84
2018-09-22T22:01:13.835Z,101073.38
2018-09-22T22:03:42.208Z,101076.97
2018-09-22T22:06:10.408Z,101077.65
2018-09-22T22:08:38.776Z,101080.58
2018-09-22T22:11:06.964Z,101079.20
2018-09-22T22:13:35.095Z,101077.70
2018-09-22T22:16:03.268Z,101089.92
2018-09-22T22:18:31.446Z,101097.21
2018-09-22T22:20:59.600Z,101101.98
2018-09-22T22:23:27.716Z,101098.14
2018-09-22T22:25:55.887Z,101100.50
2018-09-22T22:28:24.044Z,101099.37
2018-09-22T22:30:52.233Z,101094.89
2018-09-22T22:33:20.405Z,101084.07
2018-09-22T22:35:48.557Z,101072.83
2018-09-22T22:38:16.678Z,101074.39
2018-09-22T22:40:44.845Z,101069.55
2018-09-22T22:43:13.045Z,101066.38
2018-09-22T22:45:41.249Z,101059.53
2018-09-22T22:48:09.400Z,101069.59
2018-09-22T22:50:37.538Z,101065.42
2018-09-22T22:53:05.672Z,101074.65
2018-09-22T22:55:33.842Z,101070.90
2018-09-22T22:58:02.012Z,101071.61
2018-09-22T23:00:30.185Z,101070.45
2018-09-22T23:02:58.344Z,101075.03
2018-09-22T23:05:26.506Z,101074.50
2018-09-22T23:07:54.668Z,101081.66
2018-09-22T23:10:22.793Z,101083.67
2018-09-22T23:12:50.935Z,101078.70
2018-09-22T23:15:19.101Z,101079.16
2018-09-22T23:17:47.258Z,101078.38
2018-09-22T23:20:15.397Z,101083.67
2018-09-22T23:22:43.545Z,101080.60
2018-09-22T23:25:11.687Z,101069.30
2018-09-22T23:27:39.887Z,101078.05
2018-09-22T23:30:08.062Z,101070.80
2018-09-22T23:32:36.215Z,101069.43
2018-09-22T23:35:04.424Z,101067.73
2018-09-22T23:37:32.563Z,101071.40
2018-09-22T23:40:00.727Z,101071.45
2018-09-22T23:42:28.969Z,101069.16
2018-09-22T23:44:57.189Z,101069.91
2018-09-22T23:47:25.348Z,101063.70
2018-09-22T23:49:53.526Z,101068.72
2018-09-22T23:52:21.741Z,101061.06
2018-09-22T23:54:49.868Z,101062.62
2018-09-22T23:57:18.071Z,101058.59
2018-09-22T23:59:46.227Z,101059.52
